Kezdőlap
METAR-TAF:

METAR-TAF

Repülőterek :

Owatonna Degner Regional Airport

Owatonna, Minnesota, Amerikai Egyesült Államok

földrajzi szélesség: 44-07N, földrajzi hosszúság: 093-15W, magasság: 350 m

Jelenlegi meteorológiai megfigyelések

A jelentés 22 perccel ezelõtt készült, 17:13 UTC
Szélcsend
Hőmérséklet 13°C
Páratartalom 30%
Légköri nyomás 1029 hPa
Látótávolság: 16.1 km
Derült ég

METAR: KOWA 111713Z AUTO 00000KT 10SM CLR 13/M04 A3039 RMK AO2

Idő: 12:35 (17:35 UTC)


TAF: hiányzik

Meteorológiai megfigyelések és előrejelzések több, mint 4000 repülőtéren (METAR és TAF jelentéseket).

A térképen piros és sárga pontok jelzik az elérhető meteorológiai állomásokat.

Mozgassa az egeret a pont fölött, hogy megjelenjen az állomás neve.

Azután kattintson az időjárási megfigyelések és előrejelzések megtekintéséhez.

A térkép megváltoztatása: kattintson a fekete keresztel jelölt zöld gombra ráközelítéshez, a vonallal jelölt zöld gombra távolításhoz, vagy a zöld nyilakra a szomszédos térképek eléréséhez.


METAR-TAF: